createdAt,value
2018-07-13T00:00:59.440Z,16.71
2018-07-13T00:01:59.477Z,16.71
2018-07-13T00:02:59.516Z,16.73
2018-07-13T00:03:59.556Z,16.78
2018-07-13T00:04:59.595Z,16.71
2018-07-13T00:05:59.632Z,16.86
2018-07-13T00:06:59.673Z,16.82
2018-07-13T00:07:59.710Z,16.83
2018-07-13T00:08:59.750Z,16.83
2018-07-13T00:09:59.786Z,16.85
2018-07-13T00:10:59.833Z,16.82
2018-07-13T00:11:59.864Z,16.86
2018-07-13T00:12:59.902Z,16.83
2018-07-13T00:13:59.941Z,16.91
2018-07-13T00:14:59.979Z,16.86
2018-07-13T00:16:00.021Z,16.83
2018-07-13T00:17:00.061Z,16.94
2018-07-13T00:18:00.103Z,16.89
2018-07-13T00:19:00.136Z,16.86
2018-07-13T00:20:00.173Z,16.88
2018-07-13T00:21:00.211Z,16.83
2018-07-13T00:22:00.250Z,16.83
2018-07-13T00:23:00.291Z,16.82
2018-07-13T00:24:00.327Z,16.76
2018-07-13T00:25:00.366Z,16.78
2018-07-13T00:26:00.402Z,16.73
2018-07-13T00:27:00.443Z,16.70
2018-07-13T00:28:00.481Z,16.67
2018-07-13T00:29:00.519Z,16.68
2018-07-13T00:30:00.558Z,16.68
2018-07-13T00:31:00.595Z,16.70
2018-07-13T00:32:00.635Z,16.75
2018-07-13T00:33:00.672Z,16.71
2018-07-13T00:34:00.710Z,16.75
2018-07-13T00:35:00.757Z,16.75
2018-07-13T00:36:00.806Z,16.71
2018-07-13T00:37:00.829Z,16.76
2018-07-13T00:38:00.865Z,16.68
2018-07-13T00:39:01.006Z,16.73
2018-07-13T00:40:00.943Z,16.71
2018-07-13T00:41:00.990Z,16.71
2018-07-13T00:42:01.021Z,16.70
2018-07-13T00:43:01.058Z,16.71
2018-07-13T00:44:01.098Z,16.78
2018-07-13T00:45:01.164Z,16.68
2018-07-13T00:46:01.173Z,16.66
2018-07-13T00:47:01.213Z,16.70
2018-07-13T00:48:01.252Z,16.64
2018-07-13T00:49:01.289Z,16.58
2018-07-13T00:50:01.336Z,16.58
2018-07-13T00:51:01.376Z,16.60
2018-07-13T00:52:01.404Z,16.58
2018-07-13T00:53:01.545Z,16.63
2018-07-13T00:54:01.481Z,16.73
2018-07-13T00:55:01.519Z,16.66
2018-07-13T00:56:01.559Z,16.66
2018-07-13T00:57:01.597Z,16.67
2018-07-13T00:58:01.635Z,16.68
2018-07-13T00:59:01.683Z,16.67
2018-07-13T01:00:01.714Z,16.71
2018-07-13T01:01:01.751Z,16.67
2018-07-13T01:02:01.789Z,16.68
2018-07-13T01:03:01.834Z,16.68
2018-07-13T01:04:01.876Z,16.67
2018-07-13T01:05:01.906Z,16.68
2018-07-13T01:06:01.944Z,16.61
2018-07-13T01:07:01.983Z,16.58
2018-07-13T01:08:02.019Z,16.66
2018-07-13T01:09:02.061Z,16.63
2018-07-13T01:10:02.098Z,16.53
2018-07-13T01:11:02.135Z,16.50
2018-07-13T01:12:02.175Z,16.52
2018-07-13T01:13:02.216Z,16.49
2018-07-13T01:14:02.253Z,16.48
2018-07-13T01:15:02.291Z,16.45
2018-07-13T01:16:02.328Z,16.46
2018-07-13T01:17:02.367Z,16.42
2018-07-13T01:18:02.407Z,16.31
2018-07-13T01:19:02.445Z,16.45
2018-07-13T01:20:02.487Z,16.39
2018-07-13T01:21:02.523Z,16.42
2018-07-13T01:22:02.559Z,16.38
2018-07-13T01:23:02.603Z,16.39
2018-07-13T01:24:02.638Z,16.33
2018-07-13T01:25:02.676Z,16.28
2018-07-13T01:26:02.712Z,16.27
2018-07-13T01:27:02.751Z,16.27
2018-07-13T01:28:02.792Z,16.12
2018-07-13T01:29:02.828Z,16.17
2018-07-13T01:30:02.865Z,16.20
2018-07-13T01:31:02.905Z,16.09
2018-07-13T01:32:02.941Z,16.15
2018-07-13T01:33:02.982Z,16.21
2018-07-13T01:34:03.018Z,16.11
2018-07-13T01:35:03.058Z,16.07
2018-07-13T01:36:03.105Z,16.05
2018-07-13T01:37:03.136Z,15.94
2018-07-13T01:38:03.172Z,16.02
2018-07-13T01:39:03.211Z,15.96
2018-07-13T01:40:03.257Z,15.94
2018-07-13T01:41:03.288Z,15.84
2018-07-13T01:42:03.326Z,15.84
2018-07-13T01:43:03.364Z,15.78
2018-07-13T01:44:03.410Z,15.80
2018-07-13T01:45:03.442Z,15.76
2018-07-13T01:46:03.479Z,15.90
2018-07-13T01:47:03.516Z,15.71
2018-07-13T01:48:03.558Z,15.68
2018-07-13T01:49:03.593Z,15.67
2018-07-13T01:50:03.632Z,15.68
2018-07-13T01:51:03.680Z,15.72
2018-07-13T01:52:03.710Z,15.67
2018-07-13T01:53:03.750Z,15.68
2018-07-13T01:54:03.785Z,15.67
2018-07-13T01:55:03.825Z,15.54
2018-07-13T01:56:03.862Z,15.51
2018-07-13T01:57:03.902Z,15.59
2018-07-13T01:58:03.939Z,15.56
2018-07-13T01:59:03.974Z,15.60
2018-07-13T02:00:04.014Z,15.53
2018-07-13T02:01:04.052Z,15.50
2018-07-13T02:02:04.090Z,15.51
2018-07-13T02:03:04.131Z,15.47
2018-07-13T02:04:04.166Z,15.49
2018-07-13T02:05:04.220Z,15.39
2018-07-13T02:06:04.244Z,15.35
2018-07-13T02:07:04.280Z,15.34
2018-07-13T02:08:04.321Z,15.28
2018-07-13T02:09:04.361Z,15.34
2018-07-13T02:10:04.393Z,15.34
2018-07-13T02:11:04.433Z,15.27
2018-07-13T02:12:04.473Z,15.35
2018-07-13T02:13:04.509Z,15.38
2018-07-13T02:14:04.546Z,15.36
2018-07-13T02:15:04.591Z,15.35
2018-07-13T02:16:04.633Z,15.31
2018-07-13T02:17:04.666Z,15.32
2018-07-13T02:18:04.698Z,15.32
2018-07-13T02:19:04.737Z,15.31
2018-07-13T02:20:04.776Z,15.36
2018-07-13T02:21:04.813Z,15.35
2018-07-13T02:22:04.852Z,15.35
2018-07-13T02:23:04.939Z,15.27
2018-07-13T02:24:04.927Z,15.35
2018-07-13T02:25:04.967Z,15.32
2018-07-13T02:26:05.003Z,15.29
2018-07-13T02:27:05.042Z,15.29
2018-07-13T02:28:05.080Z,15.34
2018-07-13T02:29:05.118Z,15.34
2018-07-13T02:30:05.154Z,15.27
2018-07-13T02:31:05.193Z,15.29
2018-07-13T02:32:05.234Z,15.25
2018-07-13T02:33:05.267Z,15.28
2018-07-13T02:34:05.306Z,15.17
2018-07-13T02:35:05.343Z,15.16
2018-07-13T02:36:05.384Z,15.13
2018-07-13T02:37:05.424Z,15.07
2018-07-13T02:38:05.456Z,15.09
2018-07-13T02:39:05.542Z,14.99
2018-07-13T02:40:05.534Z,15.03
2018-07-13T02:41:05.571Z,15.03
2018-07-13T02:42:05.612Z,15.06
2018-07-13T02:43:05.648Z,15.02
2018-07-13T02:44:05.684Z,15.01
2018-07-13T02:45:05.722Z,15.01
2018-07-13T02:46:05.759Z,15.02
2018-07-13T02:47:05.797Z,14.99
2018-07-13T02:48:05.844Z,14.96
2018-07-13T02:49:05.874Z,15.01
2018-07-13T02:50:05.916Z,15.02
2018-07-13T02:51:05.972Z,15.02
2018-07-13T02:52:05.988Z,14.98
2018-07-13T02:53:06.028Z,15.06
2018-07-13T02:54:06.061Z,14.99
2018-07-13T02:55:06.102Z,15.06
2018-07-13T02:56:06.139Z,15.01
2018-07-13T02:57:06.180Z,15.07
2018-07-13T02:58:06.212Z,15.01
2018-07-13T02:59:06.254Z,15.01
2018-07-13T03:00:06.291Z,14.86
2018-07-13T03:01:06.329Z,14.89
2018-07-13T03:02:06.371Z,14.84
2018-07-13T03:03:06.404Z,14.91
2018-07-13T03:04:06.440Z,14.92
2018-07-13T03:05:06.475Z,14.89
2018-07-13T03:06:06.514Z,14.95
2018-07-13T03:07:06.551Z,14.89
2018-07-13T03:08:06.591Z,14.83
2018-07-13T03:09:06.628Z,14.89
2018-07-13T03:10:06.666Z,14.83
2018-07-13T03:11:06.702Z,14.88
2018-07-13T03:12:06.741Z,14.88
2018-07-13T03:13:06.778Z,14.86
2018-07-13T03:14:06.817Z,14.77
2018-07-13T03:15:06.853Z,14.81
2018-07-13T03:16:06.889Z,14.81
2018-07-13T03:17:06.928Z,14.81
2018-07-13T03:18:06.974Z,14.84
2018-07-13T03:19:07.003Z,14.83
2018-07-13T03:20:07.042Z,14.75
2018-07-13T03:21:07.080Z,14.86
2018-07-13T03:22:07.179Z,14.81
2018-07-13T03:23:07.154Z,14.81
2018-07-13T03:24:07.192Z,14.80
2018-07-13T03:25:07.229Z,14.62
2018-07-13T03:26:07.268Z,14.68
2018-07-13T03:27:07.304Z,14.64
2018-07-13T03:28:07.340Z,14.57
2018-07-13T03:29:07.378Z,14.51
2018-07-13T03:30:07.415Z,14.47
2018-07-13T03:31:07.454Z,14.51
2018-07-13T03:32:07.490Z,14.57
2018-07-13T03:33:07.529Z,14.51
2018-07-13T03:34:07.564Z,14.54
2018-07-13T03:35:07.604Z,14.61
2018-07-13T03:36:07.640Z,14.57
2018-07-13T03:37:07.681Z,14.57
2018-07-13T03:38:07.715Z,14.52
2018-07-13T03:39:07.752Z,14.51
2018-07-13T03:40:07.797Z,14.40
2018-07-13T03:41:07.828Z,14.40
2018-07-13T03:42:07.866Z,14.42
2018-07-13T03:43:07.904Z,14.47
2018-07-13T03:44:07.940Z,14.43
2018-07-13T03:45:07.978Z,14.43
2018-07-13T03:46:08.016Z,14.43
2018-07-13T03:47:08.052Z,14.36
2018-07-13T03:48:08.089Z,14.47
2018-07-13T03:49:08.127Z,14.51
2018-07-13T03:50:08.165Z,14.52
2018-07-13T03:51:08.202Z,14.52
2018-07-13T03:52:08.240Z,14.52
2018-07-13T03:53:08.278Z,14.36
2018-07-13T03:54:08.352Z,14.40
2018-07-13T03:55:08.360Z,14.39
2018-07-13T03:56:08.391Z,14.47
2018-07-13T03:57:08.441Z,14.40
2018-07-13T03:58:08.465Z,14.42
2018-07-13T03:59:08.503Z,14.37
2018-07-13T04:00:08.540Z,14.42
2018-07-13T04:01:08.578Z,14.47
2018-07-13T04:02:08.614Z,14.47
2018-07-13T04:03:08.659Z,14.50
2018-07-13T04:04:08.689Z,14.52
2018-07-13T04:05:08.730Z,14.50
2018-07-13T04:06:08.764Z,14.50
2018-07-13T04:07:08.975Z,14.51
2018-07-13T04:08:08.840Z,14.61
2018-07-13T04:09:08.878Z,14.54
2018-07-13T04:10:08.913Z,14.65
2018-07-13T04:11:08.950Z,14.68
2018-07-13T04:12:08.987Z,14.57
2018-07-13T04:13:09.026Z,14.62
2018-07-13T04:14:09.063Z,14.69
2018-07-13T04:15:09.099Z,14.65
2018-07-13T04:16:09.139Z,14.69
2018-07-13T04:17:09.176Z,14.65
2018-07-13T04:18:09.212Z,14.77
2018-07-13T04:19:09.253Z,14.78
2018-07-13T04:20:09.291Z,14.81
2018-07-13T04:21:09.327Z,14.86
2018-07-13T04:22:09.362Z,14.92
2018-07-13T04:23:09.401Z,14.86
2018-07-13T04:24:09.439Z,14.91
2018-07-13T04:25:09.474Z,14.92
2018-07-13T04:26:09.527Z,14.86
2018-07-13T04:27:09.550Z,14.96
2018-07-13T04:28:09.589Z,14.98
2018-07-13T04:29:09.625Z,14.94
2018-07-13T04:30:09.665Z,15.02
2018-07-13T04:31:09.700Z,15.03
2018-07-13T04:32:09.740Z,15.10
2018-07-13T04:33:09.776Z,15.07
2018-07-13T04:34:09.856Z,15.03
2018-07-13T04:35:09.855Z,15.06
2018-07-13T04:36:09.888Z,14.98
2018-07-13T04:37:09.926Z,15.03
2018-07-13T04:38:09.962Z,15.03
2018-07-13T04:39:09.999Z,15.01
2018-07-13T04:40:10.136Z,15.10
2018-07-13T04:41:10.172Z,15.11
2018-07-13T04:42:10.110Z,15.11
2018-07-13T04:43:10.149Z,15.10
2018-07-13T04:44:10.187Z,15.19
2018-07-13T04:45:10.225Z,15.27
2018-07-13T04:46:10.261Z,15.23
2018-07-13T04:47:10.400Z,15.27
2018-07-13T04:48:10.337Z,15.28
2018-07-13T04:49:10.380Z,15.25
2018-07-13T04:50:10.481Z,15.25
2018-07-13T04:51:10.449Z,15.35
2018-07-13T04:52:10.488Z,15.29
2018-07-13T04:53:10.526Z,15.36
2018-07-13T04:54:10.566Z,15.43
2018-07-13T04:55:10.601Z,15.39
2018-07-13T04:56:10.639Z,15.41
2018-07-13T04:57:10.678Z,15.47
2018-07-13T04:58:10.714Z,15.47
2018-07-13T04:59:10.753Z,15.50
2018-07-13T05:00:10.789Z,15.57
2018-07-13T05:01:10.836Z,15.60
2018-07-13T05:02:10.868Z,15.69
2018-07-13T05:03:10.905Z,15.71
2018-07-13T05:04:10.942Z,15.67
2018-07-13T05:05:10.979Z,15.71
2018-07-13T05:06:11.074Z,15.75
2018-07-13T05:07:11.054Z,15.86
2018-07-13T05:08:11.093Z,15.75
2018-07-13T05:09:11.130Z,15.75
2018-07-13T05:10:11.166Z,15.83
2018-07-13T05:11:11.204Z,15.82
2018-07-13T05:12:11.243Z,15.97
2018-07-13T05:13:11.279Z,16.02
2018-07-13T05:14:11.317Z,16.05
2018-07-13T05:15:11.361Z,16.05
2018-07-13T05:16:11.395Z,16.11
2018-07-13T05:17:11.432Z,16.17
2018-07-13T05:18:11.473Z,16.14
2018-07-13T05:19:11.507Z,16.28
2018-07-13T05:20:11.546Z,16.30
2018-07-13T05:21:11.600Z,16.25
2018-07-13T05:22:11.629Z,16.39
2018-07-13T05:23:11.660Z,16.41
2018-07-13T05:24:11.698Z,16.45
2018-07-13T05:25:11.738Z,16.61
2018-07-13T05:26:11.774Z,16.97
2018-07-13T05:27:11.913Z,17.28
2018-07-13T05:28:11.851Z,17.48
2018-07-13T05:29:11.892Z,17.44
2018-07-13T05:30:11.928Z,17.33
2018-07-13T05:31:11.966Z,17.26
2018-07-13T05:32:12.005Z,17.51
2018-07-13T05:33:12.045Z,17.87
2018-07-13T05:34:12.080Z,17.97
2018-07-13T05:35:12.119Z,18.00
2018-07-13T05:36:12.159Z,17.84
2018-07-13T05:37:12.197Z,17.68
2018-07-13T05:38:12.260Z,17.64
2018-07-13T05:39:12.273Z,17.51
2018-07-13T05:40:12.312Z,17.52
2018-07-13T05:41:12.352Z,17.54
2018-07-13T05:42:12.387Z,17.58
2018-07-13T05:43:12.428Z,17.52
2018-07-13T05:44:12.464Z,17.55
2018-07-13T05:45:12.504Z,17.54
2018-07-13T05:46:12.547Z,17.54
2018-07-13T05:47:12.581Z,17.66
2018-07-13T05:48:12.621Z,17.54
2018-07-13T05:49:12.659Z,17.58
2018-07-13T05:50:12.696Z,17.63
2018-07-13T05:51:12.737Z,17.71
2018-07-13T05:52:12.775Z,17.71
2018-07-13T05:53:12.814Z,17.63
2018-07-13T05:54:12.852Z,17.71
2018-07-13T05:55:12.897Z,17.79
2018-07-13T05:56:12.930Z,17.79
2018-07-13T05:57:12.970Z,17.84
2018-07-13T05:58:13.008Z,17.95
2018-07-13T05:59:13.054Z,17.95
2018-07-13T06:00:13.085Z,17.89
2018-07-13T06:01:13.126Z,17.93
2018-07-13T06:02:13.167Z,18.12
2018-07-13T06:03:13.203Z,18.20
2018-07-13T06:04:13.241Z,18.17
2018-07-13T06:05:13.283Z,18.17
2018-07-13T06:06:13.324Z,18.25
2018-07-13T06:07:13.368Z,18.37
2018-07-13T06:08:13.403Z,18.30
2018-07-13T06:09:13.438Z,18.45
2018-07-13T06:10:13.476Z,18.51
2018-07-13T06:11:13.517Z,18.54
2018-07-13T06:12:13.554Z,18.55
2018-07-13T06:13:13.593Z,18.70
2018-07-13T06:14:13.634Z,18.72
2018-07-13T06:15:13.672Z,18.63
2018-07-13T06:16:13.710Z,18.70
2018-07-13T06:17:13.751Z,18.81
2018-07-13T06:18:13.797Z,18.84
2018-07-13T06:19:13.828Z,18.88
2018-07-13T06:20:13.868Z,18.88
2018-07-13T06:21:13.908Z,18.94
2018-07-13T06:22:13.949Z,18.91
2018-07-13T06:23:13.987Z,18.98
2018-07-13T06:24:14.111Z,19.07
2018-07-13T06:25:14.066Z,19.07
2018-07-13T06:26:14.104Z,19.13
2018-07-13T06:27:14.144Z,19.19
2018-07-13T06:28:14.184Z,19.19
2018-07-13T06:29:14.229Z,19.10
2018-07-13T06:30:14.328Z,19.16
2018-07-13T06:31:14.305Z,19.19
2018-07-13T06:32:14.350Z,19.23
2018-07-13T06:33:14.381Z,19.40
2018-07-13T06:34:14.418Z,19.31
2018-07-13T06:35:14.459Z,19.40
2018-07-13T06:36:14.502Z,19.39
2018-07-13T06:37:14.550Z,19.48
2018-07-13T06:38:14.677Z,19.59
2018-07-13T06:39:14.619Z,19.56
2018-07-13T06:40:14.657Z,19.69
2018-07-13T06:41:14.696Z,19.73
2018-07-13T06:42:14.737Z,19.63
2018-07-13T06:43:14.776Z,19.73
2018-07-13T06:44:14.813Z,19.78
2018-07-13T06:45:14.963Z,19.80
2018-07-13T06:46:14.896Z,19.84
2018-07-13T06:47:14.933Z,19.95
2018-07-13T06:48:14.974Z,19.94
2018-07-13T06:49:15.018Z,19.95
2018-07-13T06:50:15.054Z,20.05
2018-07-13T06:51:15.092Z,19.99
2018-07-13T06:52:15.133Z,20.14
2018-07-13T06:53:15.173Z,20.17
2018-07-13T06:54:15.213Z,20.16
2018-07-13T06:55:15.255Z,20.23
2018-07-13T06:56:15.293Z,20.29
2018-07-13T06:57:15.333Z,20.36
2018-07-13T06:58:15.380Z,20.36
2018-07-13T06:59:15.413Z,20.42
2018-07-13T07:00:15.454Z,20.50
2018-07-13T07:01:15.594Z,20.51
2018-07-13T07:02:15.533Z,20.58
2018-07-13T07:03:15.571Z,20.61
2018-07-13T07:04:15.622Z,20.66
2018-07-13T07:05:15.661Z,20.61
2018-07-13T07:06:15.715Z,20.69
2018-07-13T07:07:15.732Z,20.67
2018-07-13T07:08:15.772Z,20.67
2018-07-13T07:09:15.813Z,20.64
2018-07-13T07:10:15.853Z,20.79
2018-07-13T07:11:15.893Z,20.74
2018-07-13T07:12:15.933Z,20.80
2018-07-13T07:13:15.977Z,20.84
2018-07-13T07:14:16.013Z,20.87
2018-07-13T07:15:16.162Z,20.92
2018-07-13T07:16:16.094Z,20.94
2018-07-13T07:17:16.145Z,20.94
2018-07-13T07:18:16.173Z,20.95
2018-07-13T07:19:16.217Z,21.01
2018-07-13T07:20:16.255Z,20.98
2018-07-13T07:21:16.296Z,21.10
2018-07-13T07:22:16.394Z,21.16
2018-07-13T07:23:16.383Z,21.28
2018-07-13T07:24:16.420Z,21.25
2018-07-13T07:25:16.460Z,21.35
2018-07-13T07:26:16.497Z,21.46
2018-07-13T07:27:16.549Z,21.44
2018-07-13T07:28:16.578Z,21.49
2018-07-13T07:29:16.620Z,21.53
2018-07-13T07:30:16.658Z,21.53
2018-07-13T07:31:16.708Z,21.53
2018-07-13T07:32:16.740Z,21.65
2018-07-13T07:33:16.782Z,21.62
2018-07-13T07:34:16.826Z,21.67
2018-07-13T07:35:16.863Z,21.69
2018-07-13T07:36:16.903Z,21.65
2018-07-13T07:37:16.951Z,21.67
2018-07-13T07:38:16.987Z,21.71
2018-07-13T07:39:17.025Z,21.80
2018-07-13T07:40:17.065Z,21.83
2018-07-13T07:41:17.108Z,21.94
2018-07-13T07:42:17.146Z,21.92
2018-07-13T07:43:17.186Z,22.05
2018-07-13T07:44:17.238Z,22.09
2018-07-13T07:45:17.268Z,22.14
2018-07-13T07:46:17.309Z,22.21
2018-07-13T07:47:17.363Z,22.24
2018-07-13T07:48:17.391Z,22.31
2018-07-13T07:49:17.433Z,22.22
2018-07-13T07:50:17.474Z,22.27
2018-07-13T07:51:17.515Z,22.31
2018-07-13T07:52:17.554Z,22.42
2018-07-13T07:53:17.599Z,22.47
2018-07-13T07:54:17.639Z,22.45
2018-07-13T07:55:17.680Z,22.47
2018-07-13T07:56:17.724Z,22.54
2018-07-13T07:57:17.761Z,22.54
2018-07-13T07:58:17.804Z,22.46
2018-07-13T07:59:17.844Z,22.55
2018-07-13T08:00:17.895Z,22.67
2018-07-13T08:01:17.941Z,22.70
2018-07-13T08:02:17.968Z,22.75
2018-07-13T08:03:18.010Z,22.77
2018-07-13T08:04:18.058Z,22.73
2018-07-13T08:05:18.091Z,22.73
2018-07-13T08:06:18.293Z,22.86
2018-07-13T08:07:18.372Z,22.91
2018-07-13T08:08:18.216Z,22.91
2018-07-13T08:09:18.254Z,22.98
2018-07-13T08:10:18.296Z,23.05
2018-07-13T08:11:18.343Z,23.04
2018-07-13T08:12:18.375Z,23.04
2018-07-13T08:13:18.417Z,23.09
2018-07-13T08:14:18.535Z,23.19
2018-07-13T08:15:18.503Z,23.20
2018-07-13T08:16:18.542Z,23.20
2018-07-13T08:17:18.582Z,23.25
2018-07-13T08:18:18.620Z,23.22
2018-07-13T08:19:18.671Z,23.22
2018-07-13T08:20:18.704Z,23.23
2018-07-13T08:21:18.745Z,23.31
2018-07-13T08:22:18.786Z,23.27
2018-07-13T08:23:18.831Z,23.13
2018-07-13T08:24:18.868Z,23.20
2018-07-13T08:25:18.919Z,23.27
2018-07-13T08:26:18.953Z,23.28
2018-07-13T08:27:18.993Z,23.31
2018-07-13T08:28:19.035Z,23.31
2018-07-13T08:29:19.074Z,23.36
2018-07-13T08:30:19.133Z,23.36
2018-07-13T08:31:19.156Z,23.28
2018-07-13T08:32:19.198Z,23.35
2018-07-13T08:33:19.240Z,23.43
2018-07-13T08:34:19.285Z,23.42
2018-07-13T08:35:19.319Z,23.46
2018-07-13T08:36:19.371Z,23.54
2018-07-13T08:37:19.403Z,23.54
2018-07-13T08:38:19.445Z,23.50
2018-07-13T08:39:19.487Z,23.58
2018-07-13T08:40:19.527Z,23.66
2018-07-13T08:41:19.567Z,23.75
2018-07-13T08:42:19.609Z,23.73
2018-07-13T08:43:19.652Z,23.84
2018-07-13T08:44:19.692Z,23.70
2018-07-13T08:45:19.735Z,23.87
2018-07-13T08:46:19.775Z,23.87
2018-07-13T08:47:19.819Z,23.95
2018-07-13T08:48:19.858Z,24.00
2018-07-13T08:49:19.899Z,24.09
2018-07-13T08:50:19.950Z,24.12
2018-07-13T08:51:20.003Z,24.09
2018-07-13T08:52:20.031Z,24.05
2018-07-13T08:53:20.071Z,24.05
2018-07-13T08:54:20.106Z,24.03
2018-07-13T08:55:20.156Z,24.05
2018-07-13T08:56:20.287Z,24.09
2018-07-13T08:57:20.232Z,24.02
2018-07-13T08:58:20.272Z,24.08
2018-07-13T08:59:20.314Z,24.06
2018-07-13T09:00:20.365Z,23.95
2018-07-13T09:01:20.402Z,24.00
2018-07-13T09:02:20.440Z,23.94
2018-07-13T09:03:20.499Z,24.09
2018-07-13T09:04:20.569Z,24.12
2018-07-13T09:05:20.574Z,24.12
2018-07-13T09:06:20.646Z,24.15
2018-07-13T09:07:20.648Z,24.27
2018-07-13T09:08:20.695Z,24.22
2018-07-13T09:09:20.731Z,24.25
2018-07-13T09:10:20.772Z,24.21
2018-07-13T09:11:20.817Z,24.18
2018-07-13T09:12:20.860Z,24.18
2018-07-13T09:13:20.897Z,24.22
2018-07-13T09:14:20.938Z,24.30
2018-07-13T09:15:20.980Z,24.25
2018-07-13T09:16:21.021Z,24.28
2018-07-13T09:17:21.062Z,24.39
2018-07-13T09:18:21.282Z,24.45
2018-07-13T09:19:21.153Z,24.40
2018-07-13T09:20:21.189Z,24.47
2018-07-13T09:21:21.230Z,24.55
2018-07-13T09:22:21.270Z,24.53
2018-07-13T09:23:21.314Z,24.61
2018-07-13T09:24:21.355Z,24.53
2018-07-13T09:25:21.397Z,24.57
2018-07-13T09:26:21.439Z,24.61
2018-07-13T09:27:21.488Z,24.64
2018-07-13T09:28:21.523Z,24.61
2018-07-13T09:29:21.565Z,24.62
2018-07-13T09:30:21.608Z,24.61
2018-07-13T09:31:21.759Z,24.57
2018-07-13T09:32:21.690Z,24.69
2018-07-13T09:33:21.750Z,24.71
2018-07-13T09:34:21.773Z,24.69
2018-07-13T09:35:21.815Z,24.78
2018-07-13T09:36:21.859Z,24.78
2018-07-13T09:37:21.901Z,24.77
2018-07-13T09:38:22.013Z,24.88
2018-07-13T09:39:21.981Z,24.85
2018-07-13T09:40:22.029Z,24.83
2018-07-13T09:41:22.066Z,24.90
2018-07-13T09:42:22.106Z,24.95
2018-07-13T09:43:22.184Z,24.98
2018-07-13T09:44:22.192Z,25.10
2018-07-13T09:45:22.235Z,25.18
2018-07-13T09:46:22.280Z,25.20
2018-07-13T09:47:22.332Z,25.18
2018-07-13T09:48:22.360Z,25.13
2018-07-13T09:49:22.403Z,24.96
2018-07-13T09:50:22.453Z,24.95
2018-07-13T09:51:22.488Z,24.95
2018-07-13T09:52:22.528Z,25.06
2018-07-13T09:53:22.586Z,25.08
2018-07-13T09:54:22.612Z,25.06
2018-07-13T09:55:22.655Z,25.09
2018-07-13T09:56:22.701Z,25.08
2018-07-13T09:57:22.738Z,25.08
2018-07-13T09:58:22.782Z,25.14
2018-07-13T09:59:22.825Z,25.18
2018-07-13T10:00:22.910Z,25.20
2018-07-13T10:01:22.908Z,25.28
2018-07-13T10:02:22.949Z,25.13
2018-07-13T10:03:22.991Z,25.06
2018-07-13T10:04:23.035Z,25.15
2018-07-13T10:05:23.081Z,25.13
2018-07-13T10:06:23.121Z,25.05
2018-07-13T10:07:23.160Z,25.09
2018-07-13T10:08:23.201Z,25.10
2018-07-13T10:09:23.244Z,25.21
2018-07-13T10:10:23.286Z,25.20
2018-07-13T10:11:23.329Z,25.35
2018-07-13T10:12:23.375Z,25.35
2018-07-13T10:13:23.422Z,25.33
2018-07-13T10:14:23.455Z,25.39
2018-07-13T10:15:23.498Z,25.52
2018-07-13T10:16:23.541Z,25.58
2018-07-13T10:17:23.582Z,25.62
2018-07-13T10:18:23.624Z,25.67
2018-07-13T10:19:23.668Z,25.61
2018-07-13T10:20:23.709Z,25.64
2018-07-13T10:21:23.756Z,25.70
2018-07-13T10:22:23.901Z,25.60
2018-07-13T10:23:23.838Z,25.54
2018-07-13T10:24:23.881Z,25.58
2018-07-13T10:25:23.930Z,25.52
2018-07-13T10:26:23.964Z,25.51
2018-07-13T10:27:24.007Z,25.55
2018-07-13T10:28:24.048Z,25.64
2018-07-13T10:29:24.142Z,25.75
2018-07-13T10:30:24.142Z,25.82
2018-07-13T10:31:24.176Z,25.70
2018-07-13T10:32:24.218Z,25.70
2018-07-13T10:33:24.260Z,25.70
2018-07-13T10:34:24.309Z,25.82
2018-07-13T10:35:24.369Z,25.75
2018-07-13T10:36:24.395Z,25.75
2018-07-13T10:37:24.434Z,25.76
2018-07-13T10:38:24.473Z,25.72
2018-07-13T10:39:24.523Z,25.77
2018-07-13T10:40:24.559Z,25.73
2018-07-13T10:41:24.602Z,25.73
2018-07-13T10:42:24.643Z,25.79
2018-07-13T10:43:24.691Z,25.82
2018-07-13T10:44:24.729Z,25.90
2018-07-13T10:45:24.771Z,25.83
2018-07-13T10:46:24.812Z,25.91
2018-07-13T10:47:24.858Z,25.97
2018-07-13T10:48:24.901Z,26.07
2018-07-13T10:49:24.943Z,26.02
2018-07-13T10:50:24.984Z,25.97
2018-07-13T10:51:25.035Z,26.12
2018-07-13T10:52:25.072Z,26.07
2018-07-13T10:53:25.119Z,26.13
2018-07-13T10:54:25.156Z,26.17
2018-07-13T10:55:25.200Z,26.18
2018-07-13T10:56:25.258Z,26.23
2018-07-13T10:57:25.300Z,26.36
2018-07-13T10:58:25.325Z,26.47
2018-07-13T10:59:25.370Z,26.50
2018-07-13T11:00:25.421Z,26.54
2018-07-13T11:01:25.457Z,26.43
2018-07-13T11:02:25.497Z,26.47
2018-07-13T11:03:25.549Z,26.44
2018-07-13T11:04:25.583Z,26.55
2018-07-13T11:05:25.626Z,26.51
2018-07-13T11:06:25.719Z,26.48
2018-07-13T11:07:25.717Z,26.54
2018-07-13T11:08:25.753Z,26.43
2018-07-13T11:09:25.800Z,26.50
2018-07-13T11:10:25.839Z,26.45
2018-07-13T11:11:25.892Z,26.54
2018-07-13T11:12:25.929Z,26.39
2018-07-13T11:13:25.970Z,26.44
2018-07-13T11:14:26.012Z,26.62
2018-07-13T11:15:26.055Z,26.70
2018-07-13T11:16:26.097Z,26.51
2018-07-13T11:17:26.141Z,26.63
2018-07-13T11:18:26.185Z,26.57
2018-07-13T11:19:26.229Z,26.51
2018-07-13T11:20:26.269Z,26.63
2018-07-13T11:21:26.314Z,26.72
2018-07-13T11:22:26.359Z,26.57
2018-07-13T11:23:26.398Z,26.81
2018-07-13T11:24:26.443Z,26.77
2018-07-13T11:25:26.494Z,26.85
2018-07-13T11:26:26.529Z,26.88
2018-07-13T11:27:26.573Z,26.82
2018-07-13T11:28:26.616Z,26.91
2018-07-13T11:29:26.664Z,26.82
2018-07-13T11:30:26.700Z,26.70
2018-07-13T11:31:26.744Z,26.69
2018-07-13T11:32:26.791Z,26.73
2018-07-13T11:33:26.829Z,26.72
2018-07-13T11:34:26.872Z,26.77
2018-07-13T11:35:26.916Z,26.81
2018-07-13T11:36:26.958Z,26.82
2018-07-13T11:37:27.195Z,26.97
2018-07-13T11:38:27.055Z,26.97
2018-07-13T11:39:27.089Z,27.00
2018-07-13T11:40:27.131Z,26.91
2018-07-13T11:41:27.176Z,27.04
2018-07-13T11:42:27.217Z,27.03
2018-07-13T11:43:27.263Z,26.84
2018-07-13T11:44:27.307Z,26.92
2018-07-13T11:45:27.356Z,26.99
2018-07-13T11:46:27.390Z,26.84
2018-07-13T11:47:27.434Z,26.69
2018-07-13T11:48:27.493Z,26.69
2018-07-13T11:49:27.524Z,26.69
2018-07-13T11:50:27.570Z,26.81
2018-07-13T11:51:27.607Z,26.75
2018-07-13T11:52:27.650Z,26.75
2018-07-13T11:53:27.703Z,26.82
2018-07-13T11:54:27.735Z,26.89
2018-07-13T11:55:27.782Z,26.88
2018-07-13T11:56:28.068Z,27.13
2018-07-13T11:57:27.867Z,27.19
2018-07-13T11:58:27.908Z,27.29
2018-07-13T11:59:27.952Z,27.39
2018-07-13T12:00:28.039Z,27.55
2018-07-13T12:01:28.039Z,27.54
2018-07-13T12:02:28.090Z,27.62
2018-07-13T12:03:28.126Z,27.59
2018-07-13T12:04:28.169Z,27.54
2018-07-13T12:05:28.213Z,27.51
2018-07-13T12:06:28.254Z,27.55
2018-07-13T12:07:28.337Z,27.50
2018-07-13T12:08:28.344Z,27.65
2018-07-13T12:09:28.394Z,27.66
2018-07-13T12:10:28.428Z,27.49
2018-07-13T12:11:28.473Z,27.47
2018-07-13T12:12:28.590Z,27.60
2018-07-13T12:13:28.560Z,27.60
2018-07-13T12:14:28.688Z,27.62
2018-07-13T12:15:28.645Z,27.63
2018-07-13T12:16:28.691Z,27.59
2018-07-13T12:17:28.763Z,27.70
2018-07-13T12:18:28.777Z,27.69
2018-07-13T12:19:28.821Z,27.67
2018-07-13T12:20:28.866Z,27.67
2018-07-13T12:21:28.908Z,27.62
2018-07-13T12:22:28.956Z,27.75
2018-07-13T12:23:29.006Z,27.81
2018-07-13T12:24:29.044Z,27.65
2018-07-13T12:25:29.084Z,27.75
2018-07-13T12:26:29.125Z,27.78
2018-07-13T12:27:29.170Z,27.69
2018-07-13T12:28:29.213Z,27.77
2018-07-13T12:29:29.258Z,27.70
2018-07-13T12:30:29.311Z,27.67
2018-07-13T12:31:29.354Z,27.62
2018-07-13T12:32:29.422Z,27.66
2018-07-13T12:33:29.434Z,27.66
2018-07-13T12:34:29.475Z,27.65
2018-07-13T12:35:29.520Z,27.78
2018-07-13T12:36:29.564Z,27.79
2018-07-13T12:37:29.611Z,27.87
2018-07-13T12:38:29.652Z,27.72
2018-07-13T12:39:29.754Z,27.62
2018-07-13T12:40:29.738Z,27.72
2018-07-13T12:41:29.784Z,27.69
2018-07-13T12:42:29.825Z,27.66
2018-07-13T12:43:29.870Z,27.69
2018-07-13T12:44:29.915Z,27.88
2018-07-13T12:45:29.959Z,27.88
2018-07-13T12:46:30.003Z,27.72
2018-07-13T12:47:30.046Z,27.67
2018-07-13T12:48:30.090Z,27.72
2018-07-13T12:49:30.139Z,27.65
2018-07-13T12:50:30.176Z,27.75
2018-07-13T12:51:30.232Z,27.78
2018-07-13T12:52:30.274Z,27.70
2018-07-13T12:53:30.307Z,27.78